createdAt,value
2018-02-11T00:02:19.026Z,100786.52
2018-02-11T00:04:46.654Z,100781.18
2018-02-11T00:07:14.230Z,100784.49
2018-02-11T00:09:41.815Z,100790.04
2018-02-11T00:12:09.398Z,100783.57
2018-02-11T00:14:36.985Z,100781.94
2018-02-11T00:17:04.671Z,100782.06
2018-02-11T00:19:32.255Z,100780.81
2018-02-11T00:21:59.847Z,100781.12
2018-02-11T00:24:27.450Z,100772.28
2018-02-11T00:26:55.037Z,100761.12
2018-02-11T00:29:22.714Z,100757.84
2018-02-11T00:31:50.310Z,100756.91
2018-02-11T00:34:17.890Z,100756.89
2018-02-11T00:36:51.130Z,100749.45
2018-02-11T00:39:18.718Z,100755.03
2018-02-11T00:41:46.300Z,100750.73
2018-02-11T00:44:13.877Z,100752.55
2018-02-11T00:46:41.454Z,100741.47
2018-02-11T00:49:09.031Z,100746.77
2018-02-11T00:51:36.614Z,100734.38
2018-02-11T00:54:04.257Z,100744.33
2018-02-11T00:56:31.850Z,100738.17
2018-02-11T00:58:59.483Z,100736.54
2018-02-11T01:01:27.063Z,100731.68
2018-02-11T01:03:54.752Z,100732.88
2018-02-11T01:06:22.338Z,100727.88
2018-02-11T01:08:49.922Z,100724.26
2018-02-11T01:11:17.541Z,100720.05
2018-02-11T01:13:45.125Z,100714.39
2018-02-11T01:16:12.786Z,100714.15
2018-02-11T01:18:40.474Z,100707.87
2018-02-11T01:21:08.050Z,100712.99
2018-02-11T01:23:35.631Z,100711.00
2018-02-11T01:26:03.219Z,100706.56
2018-02-11T01:28:30.806Z,100698.45
2018-02-11T01:30:58.378Z,100693.17
2018-02-11T01:33:25.958Z,100691.45
2018-02-11T01:35:53.546Z,100683.70
2018-02-11T01:38:21.134Z,100681.28
2018-02-11T01:40:48.714Z,100686.77
2018-02-11T01:43:16.338Z,100680.52
2018-02-11T01:45:43.935Z,100674.45
2018-02-11T01:48:11.579Z,100674.18
2018-02-11T01:50:39.167Z,100671.78
2018-02-11T01:53:06.757Z,100671.86
2018-02-11T01:55:34.331Z,100669.89
2018-02-11T01:58:01.914Z,100661.19
2018-02-11T02:00:29.509Z,100657.93
2018-02-11T02:02:57.094Z,100654.57
2018-02-11T02:05:24.689Z,100650.53
2018-02-11T02:07:52.284Z,100644.73
2018-02-11T02:10:19.967Z,100641.97
2018-02-11T02:12:47.631Z,100640.56
2018-02-11T02:15:15.213Z,100635.78
2018-02-11T02:17:42.800Z,100630.04
2018-02-11T02:20:10.442Z,100624.45
2018-02-11T02:22:38.038Z,100626.89
2018-02-11T02:25:05.835Z,100622.67
2018-02-11T02:27:33.507Z,100616.07
2018-02-11T02:30:01.100Z,100614.70
2018-02-11T02:32:28.694Z,100612.06
2018-02-11T02:34:56.386Z,100607.23
2018-02-11T02:37:24.089Z,100601.08
2018-02-11T02:39:52.073Z,100594.66
2018-02-11T02:42:19.698Z,100593.40
2018-02-11T02:44:47.383Z,100587.02
2018-02-11T02:47:14.971Z,100587.87
2018-02-11T02:49:42.559Z,100584.81
2018-02-11T02:52:10.154Z,100578.75
2018-02-11T02:54:37.746Z,100566.73
2018-02-11T02:57:05.390Z,100570.53
2018-02-11T02:59:32.979Z,100562.31
2018-02-11T03:02:00.609Z,100557.30
2018-02-11T03:04:28.395Z,100555.62
2018-02-11T03:06:56.160Z,100550.86
2018-02-11T03:09:23.741Z,100549.02
2018-02-11T03:11:51.327Z,100542.30
2018-02-11T03:14:18.925Z,100538.36
2018-02-11T03:16:46.514Z,100538.22
2018-02-11T03:19:14.156Z,100532.33
2018-02-11T03:21:41.788Z,100535.86
2018-02-11T03:24:09.369Z,100539.12
2018-02-11T03:26:36.950Z,100527.17
2018-02-11T03:29:04.574Z,100529.27
2018-02-11T03:31:32.171Z,100523.76
2018-02-11T03:33:59.745Z,100524.80
2018-02-11T03:36:27.329Z,100524.05
2018-02-11T03:38:54.910Z,100526.03
2018-02-11T03:41:22.493Z,100515.91
2018-02-11T03:43:50.106Z,100509.09
2018-02-11T03:46:17.727Z,100509.05
2018-02-11T03:48:45.311Z,100501.80
2018-02-11T03:51:12.898Z,100500.17
2018-02-11T03:53:40.487Z,100502.26
2018-02-11T03:56:08.144Z,100492.89
2018-02-11T03:58:35.735Z,100488.77
2018-02-11T04:01:03.323Z,100486.05
2018-02-11T04:03:30.905Z,100486.38
2018-02-11T04:05:58.484Z,100484.97
2018-02-11T04:08:26.078Z,100468.77
2018-02-11T04:10:53.659Z,100469.59
2018-02-11T04:13:21.273Z,100469.17
2018-02-11T04:15:48.931Z,100458.64
2018-02-11T04:18:16.528Z,100457.78
2018-02-11T04:20:44.114Z,100448.08
2018-02-11T04:23:11.703Z,100443.76
2018-02-11T04:25:39.283Z,100445.66
2018-02-11T04:28:06.866Z,100440.62
2018-02-11T04:30:34.455Z,100433.31
2018-02-11T04:33:02.093Z,100435.11
2018-02-11T04:35:29.675Z,100436.05
2018-02-11T04:37:57.275Z,100424.02
2018-02-11T04:40:24.979Z,100431.31
2018-02-11T04:42:52.613Z,100426.70
2018-02-11T04:45:20.270Z,100429.27
2018-02-11T04:47:47.971Z,100417.48
2018-02-11T04:50:15.595Z,100416.47
2018-02-11T04:52:43.189Z,100411.23
2018-02-11T04:55:10.934Z,100409.07
2018-02-11T04:57:38.548Z,100408.27
2018-02-11T05:00:06.126Z,100402.87
2018-02-11T05:02:33.743Z,100395.89
2018-02-11T05:05:01.334Z,100398.86
2018-02-11T05:07:28.919Z,100402.48
2018-02-11T05:09:56.544Z,100396.62
2018-02-11T05:12:24.117Z,100399.73
2018-02-11T05:14:51.703Z,100388.54
2018-02-11T05:17:19.275Z,100401.48
2018-02-11T05:19:46.866Z,100395.55
2018-02-11T05:22:14.450Z,100389.01
2018-02-11T05:24:42.099Z,100385.80
2018-02-11T05:27:09.682Z,100383.63
2018-02-11T05:29:37.273Z,100372.12
2018-02-11T05:32:04.942Z,100373.96
2018-02-11T05:34:32.604Z,100370.34
2018-02-11T05:37:00.192Z,100360.17
2018-02-11T05:39:27.776Z,100354.88
2018-02-11T05:41:55.394Z,100361.23
2018-02-11T05:44:22.980Z,100351.89
2018-02-11T05:46:50.554Z,100353.83
2018-02-11T05:49:18.140Z,100349.50
2018-02-11T05:51:45.726Z,100351.17
2018-02-11T05:54:13.302Z,100335.81
2018-02-11T05:56:40.877Z,100330.56
2018-02-11T05:59:08.455Z,100324.08
2018-02-11T06:01:36.039Z,100314.17
2018-02-11T06:04:03.626Z,100318.70
2018-02-11T06:06:31.222Z,100314.83
2018-02-11T06:08:58.810Z,100308.96
2018-02-11T06:11:26.392Z,100311.81
2018-02-11T06:13:53.983Z,100310.39
2018-02-11T06:16:21.569Z,100315.67
2018-02-11T06:18:49.199Z,100310.00
2018-02-11T06:21:16.878Z,100305.52
2018-02-11T06:23:45.082Z,100293.03
2018-02-11T06:26:12.670Z,100293.92
2018-02-11T06:28:40.325Z,100291.07
2018-02-11T06:31:07.929Z,100293.67
2018-02-11T06:33:35.532Z,100289.09
2018-02-11T06:36:03.123Z,100284.58
2018-02-11T06:38:30.707Z,100287.83
2018-02-11T06:40:58.278Z,100283.91
2018-02-11T06:43:25.860Z,100281.53
2018-02-11T06:45:53.441Z,100280.67
2018-02-11T06:48:21.028Z,100278.39
2018-02-11T06:50:48.727Z,100270.31
2018-02-11T06:53:16.306Z,100279.69
2018-02-11T06:55:43.883Z,100272.38
2018-02-11T06:58:11.460Z,100277.95
2018-02-11T07:00:39.038Z,100277.95
2018-02-11T07:03:06.618Z,100268.56
2018-02-11T07:05:34.195Z,100266.57
2018-02-11T07:08:01.893Z,100262.92
2018-02-11T07:10:29.517Z,100261.16
2018-02-11T07:12:57.099Z,100263.43
2018-02-11T07:15:24.680Z,100261.61
2018-02-11T07:17:52.406Z,100258.11
2018-02-11T07:20:19.991Z,100257.48
2018-02-11T07:22:47.602Z,100250.16
2018-02-11T07:25:15.242Z,100245.85
2018-02-11T07:27:42.851Z,100247.50
2018-02-11T07:30:10.437Z,100250.34
2018-02-11T07:32:38.028Z,100249.94
2018-02-11T07:35:05.698Z,100251.03
2018-02-11T07:37:33.270Z,100242.44
2018-02-11T07:40:00.852Z,100238.77
2018-02-11T07:42:28.434Z,100236.41
2018-02-11T07:44:56.015Z,100229.36
2018-02-11T07:47:23.594Z,100227.88
2018-02-11T07:49:51.422Z,100224.50
2018-02-11T07:52:19.125Z,100217.85
2018-02-11T07:54:46.705Z,100218.55
2018-02-11T07:57:14.286Z,100211.72
2018-02-11T07:59:41.869Z,100207.79
2018-02-11T08:02:09.450Z,100196.81
2018-02-11T08:04:37.044Z,100196.36
2018-02-11T08:07:04.746Z,100190.05
2018-02-11T08:09:32.506Z,100198.26
2018-02-11T08:12:00.099Z,100189.18
2018-02-11T08:14:27.718Z,100184.56
2018-02-11T08:16:55.338Z,100177.85
2018-02-11T08:19:22.927Z,100173.28
2018-02-11T08:21:50.650Z,100173.95
2018-02-11T08:24:18.291Z,100167.80
2018-02-11T08:26:45.979Z,100165.62
2018-02-11T08:29:13.601Z,100159.82
2018-02-11T08:31:41.234Z,100160.75
2018-02-11T08:34:08.865Z,100157.88
2018-02-11T08:36:36.478Z,100154.54
2018-02-11T08:39:04.060Z,100148.56
2018-02-11T08:41:31.636Z,100150.42
2018-02-11T08:43:59.214Z,100134.59
2018-02-11T08:46:26.799Z,100138.23
2018-02-11T08:48:54.382Z,100129.36
2018-02-11T08:51:21.963Z,100119.73
2018-02-11T08:53:49.629Z,100119.11
2018-02-11T08:56:17.249Z,100117.85
2018-02-11T08:58:44.822Z,100102.75
2018-02-11T09:01:12.438Z,100102.63
2018-02-11T09:03:40.024Z,100103.19
2018-02-11T09:06:07.605Z,100101.02
2018-02-11T09:08:35.263Z,100095.84
2018-02-11T09:11:02.838Z,100082.69
2018-02-11T09:13:30.448Z,100076.20
2018-02-11T09:15:58.031Z,100068.09
2018-02-11T09:18:25.602Z,100062.77
2018-02-11T09:20:53.198Z,100059.33
2018-02-11T09:23:20.782Z,100056.05
2018-02-11T09:25:48.393Z,100058.58
2018-02-11T09:28:16.140Z,100061.28
2018-02-11T09:30:47.936Z,100043.93
2018-02-11T09:33:18.255Z,100041.11
2018-02-11T09:35:46.500Z,100036.11
2018-02-11T09:38:14.596Z,100037.93
2018-02-11T09:40:42.350Z,100031.83
2018-02-11T09:43:10.655Z,100022.00
2018-02-11T09:45:38.248Z,100018.53
2018-02-11T09:48:06.069Z,100013.73
2018-02-11T09:50:33.646Z,100005.75
2018-02-11T09:53:01.242Z,100001.10
2018-02-11T09:55:28.911Z,99988.43
2018-02-11T09:57:56.503Z,99986.53
2018-02-11T10:00:24.728Z,99984.80
2018-02-11T10:02:52.485Z,99982.23
2018-02-11T10:05:20.194Z,99976.08
2018-02-11T10:07:47.811Z,99967.05
2018-02-11T10:10:15.394Z,99965.32
2018-02-11T10:12:42.963Z,99965.97
2018-02-11T10:15:10.588Z,99953.69
2018-02-11T10:17:39.328Z,99953.49
2018-02-11T10:20:06.903Z,99951.32
2018-02-11T10:22:34.552Z,99945.13
2018-02-11T10:25:02.127Z,99942.77
2018-02-11T10:27:29.720Z,99932.30
2018-02-11T10:29:57.298Z,99932.32
2018-02-11T10:32:24.906Z,99932.15
2018-02-11T10:34:52.475Z,99925.84
2018-02-11T10:37:20.166Z,99920.58
2018-02-11T10:39:47.882Z,99919.41
2018-02-11T10:42:15.495Z,99912.56
2018-02-11T10:44:43.058Z,99907.55
2018-02-11T10:47:10.635Z,99901.66
2018-02-11T10:49:38.774Z,99907.38
2018-02-11T10:52:07.019Z,99904.25
2018-02-11T10:54:34.655Z,99898.95
2018-02-11T10:57:02.293Z,99900.67
2018-02-11T10:59:30.805Z,99900.75
2018-02-11T11:01:58.383Z,99888.81
2018-02-11T11:04:25.978Z,99897.08
2018-02-11T11:06:55.365Z,99890.45
2018-02-11T11:09:23.067Z,99892.05
2018-02-11T11:11:50.691Z,99881.91
2018-02-11T11:14:18.311Z,99881.30
2018-02-11T11:16:45.959Z,99885.32
2018-02-11T11:19:13.530Z,99875.19
2018-02-11T11:21:41.106Z,99875.03
2018-02-11T11:24:08.678Z,99878.08
2018-02-11T11:26:36.291Z,99868.34
2018-02-11T11:29:03.867Z,99866.98
2018-02-11T11:31:31.496Z,99853.55
2018-02-11T11:33:59.103Z,99860.30
2018-02-11T11:36:26.719Z,99857.30
2018-02-11T11:38:54.287Z,99864.97
2018-02-11T11:41:21.890Z,99844.91
2018-02-11T11:43:49.474Z,99838.92
2018-02-11T11:46:17.091Z,99842.75
2018-02-11T11:48:44.702Z,99846.06
2018-02-11T11:51:12.275Z,99838.39
2018-02-11T11:53:39.886Z,99831.32
2018-02-11T11:56:07.467Z,99840.83
2018-02-11T11:58:35.054Z,99837.34
2018-02-11T12:01:02.686Z,99837.00
2018-02-11T12:03:30.337Z,99828.58
2018-02-11T12:05:57.980Z,99827.87
2018-02-11T12:08:25.674Z,99812.00
2018-02-11T12:10:53.248Z,99818.03
2018-02-11T12:13:20.822Z,99815.59
2018-02-11T12:15:48.431Z,99808.34
2018-02-11T12:18:16.047Z,99803.23
2018-02-11T12:20:43.655Z,99798.05
2018-02-11T12:23:11.261Z,99802.32
2018-02-11T12:25:38.827Z,99794.55
2018-02-11T12:28:06.395Z,99806.40
2018-02-11T12:30:34.062Z,99800.69
2018-02-11T12:33:01.642Z,99795.34
2018-02-11T12:35:29.227Z,99800.30
2018-02-11T12:37:56.870Z,99802.25
2018-02-11T12:40:24.438Z,99794.78
2018-02-11T12:42:52.011Z,99789.09
2018-02-11T12:45:19.587Z,99793.09
2018-02-11T12:47:47.222Z,99788.98
2018-02-11T12:50:15.118Z,99790.19
2018-02-11T12:52:42.755Z,99789.10
2018-02-11T12:55:10.330Z,99783.86
2018-02-11T12:57:37.974Z,99798.70
2018-02-11T13:00:05.588Z,99795.53
2018-02-11T13:02:33.157Z,99793.16
2018-02-11T13:05:01.290Z,99792.65
2018-02-11T13:07:28.863Z,99797.92
2018-02-11T13:09:56.494Z,99797.48
2018-02-11T13:12:24.112Z,99795.35
2018-02-11T13:14:51.682Z,99795.27
2018-02-11T13:17:19.255Z,99790.79
2018-02-11T13:19:46.831Z,99794.41
2018-02-11T13:22:15.289Z,99795.48
2018-02-11T13:24:44.957Z,99800.65
2018-02-11T13:27:13.258Z,99798.34
2018-02-11T13:29:40.838Z,99797.05
2018-02-11T13:32:08.452Z,99794.87
2018-02-11T13:34:36.103Z,99783.78
2018-02-11T13:37:03.759Z,99785.49
2018-02-11T13:39:32.109Z,99785.20
2018-02-11T13:41:59.744Z,99787.40
2018-02-11T13:44:27.319Z,99787.13
2018-02-11T13:46:54.936Z,99787.18
2018-02-11T13:49:22.639Z,99791.88
2018-02-11T13:51:50.259Z,99782.44
2018-02-11T13:54:17.859Z,99784.59
2018-02-11T13:56:45.437Z,99779.34
2018-02-11T13:59:13.098Z,99788.41
2018-02-11T14:01:40.799Z,99776.66
2018-02-11T14:04:08.490Z,99777.55
2018-02-11T14:06:36.126Z,99772.59
2018-02-11T14:09:03.740Z,99763.82
2018-02-11T14:11:31.314Z,99768.48
2018-02-11T14:13:58.928Z,99771.16
2018-02-11T14:16:26.504Z,99763.30
2018-02-11T14:18:54.087Z,99768.17
2018-02-11T14:21:21.691Z,99762.30
2018-02-11T14:23:49.306Z,99761.84
2018-02-11T14:26:16.914Z,99763.33
2018-02-11T14:28:44.575Z,99759.44
2018-02-11T14:31:12.146Z,99757.05
2018-02-11T14:33:39.770Z,99755.80
2018-02-11T14:36:07.383Z,99756.64
2018-02-11T14:38:34.992Z,99753.95
2018-02-11T14:41:02.566Z,99750.83
2018-02-11T14:43:30.246Z,99762.10
2018-02-11T14:45:57.835Z,99758.16
2018-02-11T14:48:25.410Z,99752.17
2018-02-11T14:50:53.000Z,99753.72
2018-02-11T14:53:20.611Z,99748.63
2018-02-11T14:55:48.193Z,99754.75
2018-02-11T14:58:16.948Z,99758.81
2018-02-11T15:00:44.571Z,99751.85
2018-02-11T15:03:12.687Z,99748.63
2018-02-11T15:05:40.344Z,99747.05
2018-02-11T15:08:08.007Z,99747.73
2018-02-11T15:10:35.623Z,99753.16
2018-02-11T15:13:03.194Z,99751.06
2018-02-11T15:15:30.813Z,99750.41
2018-02-11T15:17:58.552Z,99747.13
2018-02-11T15:20:26.183Z,99747.15
2018-02-11T15:22:54.146Z,99744.41
2018-02-11T15:25:21.822Z,99740.77
2018-02-11T15:27:49.683Z,99739.31
2018-02-11T15:30:17.384Z,99740.13
2018-02-11T15:32:45.000Z,99738.58
2018-02-11T15:35:12.584Z,99740.84
2018-02-11T15:37:40.195Z,99738.38
2018-02-11T15:40:07.779Z,99737.06
2018-02-11T15:42:35.394Z,99738.28
2018-02-11T15:45:02.975Z,99738.38
2018-02-11T15:47:30.591Z,99731.45
2018-02-11T15:49:58.894Z,99739.34
2018-02-11T15:52:26.589Z,99739.51
2018-02-11T15:54:54.171Z,99733.80
2018-02-11T15:57:21.779Z,99731.57
2018-02-11T15:59:49.354Z,99738.86
2018-02-11T16:02:17.001Z,99733.19
2018-02-11T16:04:44.583Z,99732.56
2018-02-11T16:07:12.169Z,99726.31
2018-02-11T16:09:39.750Z,99726.54
2018-02-11T16:12:07.466Z,99722.88
2018-02-11T16:14:37.129Z,99733.73
2018-02-11T16:17:05.685Z,99731.35
2018-02-11T16:19:34.214Z,99733.77
2018-02-11T16:22:01.837Z,99738.61
2018-02-11T16:24:30.163Z,99733.61
2018-02-11T16:27:00.761Z,99733.91
2018-02-11T16:29:33.491Z,99733.03
2018-02-11T16:32:01.216Z,99733.84
2018-02-11T16:34:28.831Z,99739.70
2018-02-11T16:36:56.408Z,99735.06
2018-02-11T16:39:24.055Z,99732.97
2018-02-11T16:41:51.719Z,99740.00
2018-02-11T16:44:19.359Z,99739.00
2018-02-11T16:46:46.997Z,99743.09
2018-02-11T16:49:14.594Z,99744.80
2018-02-11T16:51:42.171Z,99743.84
2018-02-11T16:54:09.984Z,99742.33
2018-02-11T16:56:37.566Z,99735.03
2018-02-11T16:59:05.146Z,99741.80
2018-02-11T17:01:32.746Z,99744.00
2018-02-11T17:04:00.344Z,99746.58
2018-02-11T17:06:28.158Z,99741.09
2018-02-11T17:08:55.747Z,99750.13
2018-02-11T17:11:23.324Z,99744.77
2018-02-11T17:13:50.935Z,99747.31
2018-02-11T17:16:18.520Z,99750.41
2018-02-11T17:18:46.291Z,99750.09
2018-02-11T17:21:13.866Z,99763.13
2018-02-11T17:23:41.482Z,99763.88
2018-02-11T17:26:09.277Z,99756.97
2018-02-11T17:28:36.962Z,99763.20
2018-02-11T17:31:04.570Z,99764.13
2018-02-11T17:33:32.227Z,99763.52
2018-02-11T17:36:00.227Z,99766.16
2018-02-11T17:38:27.816Z,99763.58
2018-02-11T17:40:55.399Z,99770.33
2018-02-11T17:43:23.118Z,99772.91
2018-02-11T17:45:50.698Z,99775.48
2018-02-11T17:48:18.479Z,99780.87
2018-02-11T17:50:46.103Z,99783.36
2018-02-11T17:53:13.679Z,99784.00
2018-02-11T17:55:41.255Z,99782.07
2018-02-11T17:58:08.832Z,99775.58
2018-02-11T18:00:36.671Z,99783.06
2018-02-11T18:03:04.727Z,99782.80
2018-02-11T18:05:32.622Z,99784.75
2018-02-11T18:08:02.551Z,99786.33
2018-02-11T18:10:30.378Z,99790.72
2018-02-11T18:12:58.126Z,99789.91
2018-02-11T18:15:25.915Z,99795.66
2018-02-11T18:17:53.573Z,99792.72
2018-02-11T18:20:21.163Z,99793.45
2018-02-11T18:22:48.788Z,99793.23
2018-02-11T18:25:16.640Z,99791.59
2018-02-11T18:27:44.398Z,99790.97
2018-02-11T18:30:11.982Z,99790.06
2018-02-11T18:32:39.698Z,99796.72
2018-02-11T18:35:07.292Z,99796.27
2018-02-11T18:37:35.044Z,99799.23
2018-02-11T18:40:02.750Z,99797.39
2018-02-11T18:42:30.339Z,99795.69
2018-02-11T18:44:58.047Z,99800.49
2018-02-11T18:47:25.860Z,99795.03
2018-02-11T18:49:54.733Z,99792.45
2018-02-11T18:52:22.435Z,99797.53
2018-02-11T18:54:50.007Z,99800.11
2018-02-11T18:57:17.620Z,99804.63
2018-02-11T18:59:45.483Z,99801.59
2018-02-11T19:02:13.396Z,99808.02
2018-02-11T19:04:41.028Z,99802.56
2018-02-11T19:07:08.719Z,99804.33
2018-02-11T19:09:36.467Z,99800.88
2018-02-11T19:12:04.312Z,99801.00
2018-02-11T19:14:31.964Z,99801.69
2018-02-11T19:16:59.575Z,99810.69
2018-02-11T19:19:27.401Z,99809.11
2018-02-11T19:21:55.019Z,99811.59
2018-02-11T19:24:22.665Z,99810.72
2018-02-11T19:26:50.286Z,99813.76
2018-02-11T19:29:18.134Z,99815.33
2018-02-11T19:31:45.719Z,99816.53
2018-02-11T19:34:13.424Z,99817.66
2018-02-11T19:36:41.135Z,99817.16
2018-02-11T19:39:08.901Z,99816.14
2018-02-11T19:41:36.471Z,99812.85
2018-02-11T19:44:04.044Z,99825.86
2018-02-11T19:46:31.631Z,99824.79
2018-02-11T19:48:59.471Z,99823.40
2018-02-11T19:51:27.124Z,99824.73
2018-02-11T19:53:54.706Z,99819.18
2018-02-11T19:56:22.278Z,99826.80
2018-02-11T19:58:50.008Z,99823.86
2018-02-11T20:01:17.660Z,99823.02
2018-02-11T20:03:45.242Z,99835.41
2018-02-11T20:06:12.820Z,99824.22
2018-02-11T20:08:40.548Z,99834.41
2018-02-11T20:11:08.321Z,99829.70
2018-02-11T20:13:35.919Z,99831.54
2018-02-11T20:16:03.487Z,99839.61
2018-02-11T20:18:31.071Z,99841.83
2018-02-11T20:20:58.841Z,99844.64
2018-02-11T20:23:26.473Z,99841.66
2018-02-11T20:25:54.041Z,99843.09
2018-02-11T20:28:21.625Z,99851.16
2018-02-11T20:30:49.337Z,99849.92
2018-02-11T20:33:17.844Z,99850.16
2018-02-11T20:35:46.062Z,99849.54
2018-02-11T20:38:13.636Z,99852.09
2018-02-11T20:40:41.271Z,99851.19
2018-02-11T20:43:09.050Z,99855.55
2018-02-11T20:45:36.674Z,99855.94
2018-02-11T20:48:04.245Z,99851.33
2018-02-11T20:50:31.888Z,99847.23
2018-02-11T20:52:59.557Z,99849.27
2018-02-11T20:55:27.161Z,99853.84
2018-02-11T20:57:55.144Z,99848.23
2018-02-11T21:00:22.724Z,99854.62
2018-02-11T21:02:50.299Z,99854.69
2018-02-11T21:05:17.900Z,99858.91
2018-02-11T21:07:45.563Z,99859.06
2018-02-11T21:10:13.367Z,99859.09
2018-02-11T21:12:41.059Z,99866.64
2018-02-11T21:15:08.773Z,99863.47
2018-02-11T21:17:36.342Z,99869.57
2018-02-11T21:20:04.072Z,99874.96
2018-02-11T21:22:31.655Z,99872.80
2018-02-11T21:24:59.434Z,99877.30
2018-02-11T21:27:27.137Z,99883.21
2018-02-11T21:29:54.863Z,99881.12
2018-02-11T21:32:22.483Z,99878.67
2018-02-11T21:34:50.127Z,99881.03
2018-02-11T21:37:18.071Z,99877.73
2018-02-11T21:39:45.655Z,99885.77
2018-02-11T21:42:13.474Z,99890.27
2018-02-11T21:44:41.045Z,99891.42
2018-02-11T21:47:08.654Z,99895.55
2018-02-11T21:49:36.275Z,99891.80
2018-02-11T21:52:03.848Z,99896.55
2018-02-11T21:54:31.427Z,99899.23
2018-02-11T21:56:59.041Z,99900.63
2018-02-11T21:59:26.659Z,99901.85
2018-02-11T22:01:54.482Z,99914.54
2018-02-11T22:04:22.054Z,99912.22
2018-02-11T22:06:49.626Z,99914.67
2018-02-11T22:09:17.358Z,99921.32
2018-02-11T22:11:44.966Z,99923.16
2018-02-11T22:14:12.627Z,99924.26
2018-02-11T22:16:40.202Z,99928.49
2018-02-11T22:19:07.883Z,99922.42
2018-02-11T22:21:35.446Z,99929.47
2018-02-11T22:24:03.058Z,99936.73
2018-02-11T22:26:30.734Z,99935.58
2018-02-11T22:28:58.335Z,99933.90
2018-02-11T22:31:25.907Z,99936.52
2018-02-11T22:33:53.511Z,99942.33
2018-02-11T22:36:21.076Z,99941.45
2018-02-11T22:38:48.692Z,99941.20
2018-02-11T22:41:16.406Z,99937.58
2018-02-11T22:43:44.590Z,99937.25
2018-02-11T22:46:12.168Z,99938.61
2018-02-11T22:48:39.849Z,99945.91
2018-02-11T22:51:07.415Z,99946.95
2018-02-11T22:53:35.048Z,99947.85
2018-02-11T22:56:02.694Z,99955.51
2018-02-11T22:58:30.264Z,99954.12
2018-02-11T23:00:57.913Z,99954.41
2018-02-11T23:05:53.203Z,99958.09
2018-02-11T23:08:20.776Z,99954.98
2018-02-11T23:10:48.338Z,99953.38
2018-02-11T23:13:15.910Z,99954.98
2018-02-11T23:15:43.474Z,99955.75
2018-02-11T23:18:11.048Z,99960.52
2018-02-11T23:20:38.616Z,99963.34
2018-02-11T23:23:06.183Z,99961.84
2018-02-11T23:25:33.756Z,99969.86
2018-02-11T23:28:01.385Z,99969.91
2018-02-11T23:30:29.050Z,99970.91
2018-02-11T23:32:56.719Z,99974.91
2018-02-11T23:35:24.302Z,99978.04
2018-02-11T23:37:51.970Z,99984.44
2018-02-11T23:40:19.544Z,99980.50
2018-02-11T23:42:47.226Z,99986.63
2018-02-11T23:45:14.793Z,99992.09
2018-02-11T23:47:42.489Z,99987.20
2018-02-11T23:50:10.087Z,99992.54
2018-02-11T23:52:37.664Z,99998.52
2018-02-11T23:55:05.233Z,100004.76
2018-02-11T23:57:32.806Z,100008.34
